createdAt,value
2022-11-21T00:01:18.221Z,11.48
2022-11-21T00:03:45.347Z,11.18
2022-11-21T00:06:12.469Z,11.00
2022-11-21T00:08:39.416Z,10.60
2022-11-21T00:11:06.323Z,11.68
2022-11-21T00:13:33.378Z,11.55
2022-11-21T00:16:05.545Z,12.77
2022-11-21T00:18:34.642Z,13.20
2022-11-21T00:21:20.614Z,11.38
2022-11-21T00:23:48.229Z,12.65
2022-11-21T00:26:16.419Z,11.45
2022-11-21T00:28:43.654Z,12.38
2022-11-21T00:31:21.610Z,12.07
2022-11-21T00:33:48.580Z,12.85
2022-11-21T00:36:15.551Z,12.65
2022-11-21T00:38:42.533Z,12.20
2022-11-21T00:41:09.441Z,11.45
2022-11-21T00:43:36.315Z,12.45
2022-11-21T00:46:04.245Z,11.27
2022-11-21T00:48:32.612Z,12.55
2022-11-21T00:51:00.704Z,13.93
2022-11-21T00:53:28.430Z,12.43
2022-11-21T00:55:55.664Z,11.27
2022-11-21T00:58:22.571Z,11.45
2022-11-21T01:00:49.812Z,11.93
2022-11-21T01:03:17.032Z,10.88
2022-11-21T01:05:44.004Z,10.20
2022-11-21T01:08:10.919Z,10.18
2022-11-21T01:10:37.862Z,11.65
2022-11-21T01:13:04.994Z,11.52
2022-11-21T01:15:31.943Z,10.68
2022-11-21T01:17:58.831Z,9.85
2022-11-21T01:20:25.992Z,10.43
2022-11-21T01:22:52.896Z,10.02
2022-11-21T01:25:19.791Z,9.75
2022-11-21T01:27:46.655Z,10.65
2022-11-21T01:30:14.576Z,12.50
2022-11-21T01:32:41.445Z,12.32
2022-11-21T01:35:08.744Z,12.65
2022-11-21T01:37:35.608Z,14.18
2022-11-21T01:40:02.575Z,13.70
2022-11-21T01:42:29.459Z,12.23
2022-11-21T01:44:56.406Z,12.25
2022-11-21T01:47:23.668Z,12.35
2022-11-21T01:49:52.359Z,12.15
2022-11-21T01:52:30.161Z,12.80
2022-11-21T01:55:05.024Z,12.20
2022-11-21T01:57:38.714Z,12.00
2022-11-21T02:00:21.642Z,11.40
2022-11-21T02:02:54.151Z,12.27
2022-11-21T02:05:28.016Z,10.30
2022-11-21T02:08:02.518Z,10.73
2022-11-21T02:10:29.596Z,11.80
2022-11-21T02:12:58.916Z,11.73
2022-11-21T02:15:28.096Z,10.95
2022-11-21T02:17:55.576Z,11.90
2022-11-21T02:20:28.354Z,10.93
2022-11-21T02:23:29.109Z,10.18
2022-11-21T02:25:56.154Z,9.30
2022-11-21T02:28:24.639Z,9.38
2022-11-21T02:30:51.575Z,7.82
2022-11-21T02:33:18.528Z,7.43
2022-11-21T02:35:45.501Z,8.20
2022-11-21T02:38:22.614Z,7.25
2022-11-21T02:40:56.381Z,6.00
2022-11-21T02:43:25.626Z,7.18
2022-11-21T02:45:52.560Z,7.38
2022-11-21T02:48:19.520Z,6.57
2022-11-21T02:50:47.552Z,6.65
2022-11-21T02:53:17.092Z,5.13
2022-11-21T02:55:44.985Z,6.18
2022-11-21T02:58:12.946Z,7.63
2022-11-21T03:00:42.070Z,6.90
2022-11-21T03:03:09.433Z,6.88
2022-11-21T03:05:37.199Z,6.10
2022-11-21T03:08:05.136Z,7.35
2022-11-21T03:10:32.505Z,6.45
2022-11-21T03:13:02.244Z,5.72
2022-11-21T03:15:31.182Z,6.07
2022-11-21T03:17:58.565Z,6.57
2022-11-21T03:20:25.544Z,6.47
2022-11-21T03:22:53.626Z,7.10
2022-11-21T03:25:21.211Z,6.25
2022-11-21T03:27:51.394Z,6.05
2022-11-21T03:30:18.816Z,6.00
2022-11-21T03:32:45.742Z,5.70
2022-11-21T03:35:12.729Z,5.72
2022-11-21T03:37:39.600Z,5.82
2022-11-21T03:40:07.306Z,5.43
2022-11-21T03:42:34.223Z,5.80
2022-11-21T03:45:01.171Z,5.47
2022-11-21T03:47:28.087Z,5.60
2022-11-21T03:49:55.017Z,5.60
2022-11-21T03:52:22.010Z,6.07
2022-11-21T03:54:48.932Z,6.15
2022-11-21T03:57:15.947Z,6.30
2022-11-21T03:59:42.902Z,6.05
2022-11-21T04:02:09.818Z,6.75
2022-11-21T04:04:36.715Z,6.05
2022-11-21T04:07:03.728Z,6.07
2022-11-21T04:09:30.683Z,5.78
2022-11-21T04:11:57.606Z,5.65
2022-11-21T04:14:24.498Z,6.60
2022-11-21T04:16:51.460Z,6.22
2022-11-21T04:19:18.328Z,5.80
2022-11-21T04:21:45.240Z,6.07
2022-11-21T04:24:12.217Z,5.38
2022-11-21T04:26:39.150Z,5.65
2022-11-21T04:29:06.078Z,6.07
2022-11-21T04:31:33.009Z,6.25
2022-11-21T04:33:59.928Z,7.00
2022-11-21T04:36:26.928Z,6.72
2022-11-21T04:38:53.862Z,6.38
2022-11-21T04:41:20.771Z,6.20
2022-11-21T04:43:47.697Z,6.60
2022-11-21T04:46:14.688Z,6.70
2022-11-21T04:48:41.533Z,6.47
2022-11-21T04:51:08.446Z,7.55
2022-11-21T04:53:38.664Z,7.63
2022-11-21T04:56:09.782Z,6.63
2022-11-21T04:58:37.229Z,7.00
2022-11-21T05:01:08.956Z,7.80
2022-11-21T05:03:36.504Z,7.90
2022-11-21T05:06:04.002Z,7.30
2022-11-21T05:08:30.974Z,7.88
2022-11-21T05:11:16.380Z,7.80
2022-11-21T05:13:43.258Z,8.00
2022-11-21T05:16:10.200Z,7.78
2022-11-21T05:18:37.085Z,8.20
2022-11-21T05:21:04.202Z,7.68
2022-11-21T05:23:31.099Z,7.78
2022-11-21T05:25:58.146Z,8.38
2022-11-21T05:28:25.090Z,7.68
2022-11-21T05:30:52.013Z,7.72
2022-11-21T05:33:19.372Z,7.88
2022-11-21T05:35:46.486Z,7.80
2022-11-21T05:38:13.657Z,7.85
2022-11-21T05:40:40.693Z,7.95
2022-11-21T05:43:26.655Z,7.35
2022-11-21T05:45:53.724Z,7.22
2022-11-21T05:48:20.620Z,8.32
2022-11-21T05:50:49.622Z,7.82
2022-11-21T05:53:16.840Z,6.65
2022-11-21T05:55:44.025Z,8.00
2022-11-21T05:58:11.583Z,6.55
2022-11-21T06:00:39.065Z,7.28
2022-11-21T06:03:25.695Z,7.85
2022-11-21T06:05:58.467Z,7.53
2022-11-21T06:08:25.844Z,7.85
2022-11-21T06:10:52.803Z,8.02
2022-11-21T06:13:22.457Z,7.40
2022-11-21T06:15:59.463Z,7.15
2022-11-21T06:18:27.696Z,7.05
2022-11-21T06:21:00.388Z,8.18
2022-11-21T06:23:27.440Z,7.65
2022-11-21T06:25:58.908Z,7.72
2022-11-21T06:28:27.288Z,8.38
2022-11-21T06:30:54.384Z,7.93
2022-11-21T06:33:22.112Z,7.47
2022-11-21T06:35:49.021Z,7.45
2022-11-21T06:38:18.738Z,6.40
2022-11-21T06:40:45.827Z,7.85
2022-11-21T06:43:12.918Z,7.47
2022-11-21T06:45:39.965Z,7.85
2022-11-21T06:48:07.101Z,8.00
2022-11-21T06:50:34.249Z,7.78
2022-11-21T06:53:01.445Z,7.97
2022-11-21T06:55:29.797Z,8.52
2022-11-21T06:58:00.230Z,7.75
2022-11-21T07:00:30.601Z,8.05
2022-11-21T07:03:03.424Z,6.80
2022-11-21T07:05:31.454Z,7.43
2022-11-21T07:08:02.670Z,7.80
2022-11-21T07:10:30.902Z,7.38
2022-11-21T07:13:19.520Z,7.55
2022-11-21T07:15:48.026Z,7.75
2022-11-21T07:18:15.167Z,7.25
2022-11-21T07:20:42.226Z,7.70
2022-11-21T07:23:09.468Z,7.18
2022-11-21T07:25:37.071Z,8.68
2022-11-21T07:28:04.858Z,8.23
2022-11-21T07:30:32.096Z,7.88
2022-11-21T07:33:00.611Z,8.95
2022-11-21T07:35:28.439Z,8.70
2022-11-21T07:37:55.456Z,8.48
2022-11-21T07:40:22.445Z,7.90
2022-11-21T07:42:49.653Z,8.10
2022-11-21T07:45:17.012Z,7.72
2022-11-21T07:47:44.381Z,8.57
2022-11-21T07:50:12.521Z,8.23
2022-11-21T07:52:39.677Z,8.73
2022-11-21T07:55:07.142Z,9.30
2022-11-21T07:57:34.294Z,8.82
2022-11-21T08:00:01.238Z,9.45
2022-11-21T08:02:31.221Z,12.32
2022-11-21T08:04:58.137Z,8.60
2022-11-21T08:07:25.199Z,8.02
2022-11-21T08:09:52.180Z,7.65
2022-11-21T08:12:19.190Z,7.60
2022-11-21T08:14:46.099Z,6.45
2022-11-21T08:17:14.113Z,7.47
2022-11-21T08:19:45.887Z,7.07
2022-11-21T08:22:12.776Z,7.80
2022-11-21T08:24:39.682Z,6.28
2022-11-21T08:27:06.637Z,6.68
2022-11-21T08:29:33.535Z,6.43
2022-11-21T08:32:01.019Z,5.90
2022-11-21T08:34:30.714Z,6.53
2022-11-21T08:36:58.958Z,6.50
2022-11-21T08:39:26.516Z,5.65
2022-11-21T08:42:03.097Z,6.15
2022-11-21T08:44:34.520Z,6.95
2022-11-21T08:47:01.990Z,6.25
2022-11-21T08:49:29.982Z,6.88
2022-11-21T08:51:56.942Z,6.88
2022-11-21T08:54:24.937Z,7.35
2022-11-21T08:56:51.952Z,6.70
2022-11-21T08:59:18.939Z,6.88
2022-11-21T09:01:45.893Z,7.57
2022-11-21T09:04:12.950Z,9.38
2022-11-21T09:06:40.139Z,6.60
2022-11-21T09:09:07.823Z,6.65
2022-11-21T09:11:35.920Z,6.70
2022-11-21T09:14:21.279Z,6.32
2022-11-21T09:17:06.698Z,6.20
2022-11-21T09:19:33.646Z,6.40
2022-11-21T09:22:00.667Z,6.72
2022-11-21T09:24:27.594Z,6.70
2022-11-21T09:26:54.564Z,6.60
2022-11-21T09:29:21.458Z,6.68
2022-11-21T09:31:48.446Z,7.00
2022-11-21T09:34:15.409Z,7.35
2022-11-21T09:36:42.338Z,7.68
2022-11-21T09:39:09.195Z,6.47
2022-11-21T09:41:59.768Z,7.00
2022-11-21T09:44:45.478Z,7.57
2022-11-21T09:47:36.883Z,6.65
2022-11-21T09:50:14.214Z,7.55
2022-11-21T09:52:53.452Z,7.43
2022-11-21T09:55:26.377Z,7.45
2022-11-21T09:57:53.552Z,7.55
2022-11-21T10:00:23.618Z,6.72
2022-11-21T10:02:52.364Z,7.20
2022-11-21T10:05:29.311Z,7.25
2022-11-21T10:08:01.491Z,7.93
2022-11-21T10:10:43.570Z,7.28
2022-11-21T10:13:23.015Z,6.43
2022-11-21T10:16:13.012Z,7.13
2022-11-21T10:19:07.872Z,6.95
2022-11-21T10:22:08.621Z,6.90
2022-11-21T10:25:01.008Z,6.75
2022-11-21T10:27:37.545Z,7.55
2022-11-21T10:30:15.859Z,6.97
2022-11-21T10:32:47.387Z,7.53
2022-11-21T10:35:20.800Z,7.07
2022-11-21T10:37:54.252Z,6.80
2022-11-21T10:40:32.207Z,7.40
2022-11-21T10:43:24.923Z,7.10
2022-11-21T10:45:52.655Z,7.65
2022-11-21T10:48:19.592Z,8.50
2022-11-21T10:51:22.803Z,8.15
2022-11-21T10:54:24.793Z,7.80
2022-11-21T10:56:53.829Z,6.90
2022-11-21T10:59:30.362Z,7.90
2022-11-21T11:02:20.893Z,7.53
2022-11-21T11:04:52.232Z,7.57
2022-11-21T11:07:28.333Z,7.20
2022-11-21T11:10:27.590Z,6.72
2022-11-21T11:13:50.871Z,6.80
2022-11-21T11:16:21.760Z,6.93
2022-11-21T11:19:01.256Z,7.70
2022-11-21T11:21:30.946Z,7.60
2022-11-21T11:24:21.906Z,7.53
2022-11-21T11:26:49.113Z,6.82
2022-11-21T11:29:22.191Z,6.60
2022-11-21T11:32:27.972Z,6.05
2022-11-21T11:35:05.097Z,7.47
2022-11-21T11:38:05.855Z,6.57
2022-11-21T11:40:43.827Z,7.60
2022-11-21T11:44:07.140Z,8.02
2022-11-21T11:47:03.681Z,7.28
2022-11-21T11:49:30.525Z,7.30
2022-11-21T11:52:02.559Z,7.90
2022-11-21T11:54:37.580Z,7.72
2022-11-21T11:57:04.684Z,7.82
2022-11-21T11:59:49.184Z,7.80
2022-11-21T12:02:22.810Z,7.50
2022-11-21T12:04:59.652Z,7.70
2022-11-21T12:08:40.219Z,7.93
2022-11-21T12:11:01.313Z,8.98
2022-11-21T12:13:30.015Z,8.23
2022-11-21T12:16:08.608Z,7.72
2022-11-21T12:18:53.259Z,8.50
2022-11-21T12:21:20.995Z,9.48
2022-11-21T12:23:56.915Z,9.32
2022-11-21T12:26:49.460Z,8.65
2022-11-21T12:29:34.936Z,8.45
2022-11-21T12:32:43.381Z,9.10
2022-11-21T12:35:39.244Z,9.95
2022-11-21T12:38:22.568Z,10.90
2022-11-21T12:40:52.410Z,10.27
2022-11-21T12:43:41.885Z,9.73
2022-11-21T12:46:39.629Z,10.63
2022-11-21T12:49:37.873Z,10.13
2022-11-21T12:52:41.255Z,10.07
2022-11-21T12:55:08.458Z,11.10
2022-11-21T12:58:03.574Z,10.68
2022-11-21T13:00:45.468Z,9.85
2022-11-21T13:03:18.118Z,9.88
2022-11-21T13:05:49.090Z,9.73
2022-11-21T13:08:25.761Z,9.98
2022-11-21T13:11:32.662Z,9.13
2022-11-21T13:14:12.647Z,10.52
2022-11-21T13:16:46.653Z,10.32
2022-11-21T13:19:23.304Z,9.60
2022-11-21T13:21:53.127Z,9.52
2022-11-21T13:24:47.045Z,10.55
2022-11-21T13:27:46.642Z,10.55
2022-11-21T13:30:15.116Z,10.70
2022-11-21T13:32:43.595Z,10.48
2022-11-21T13:35:19.588Z,12.35
2022-11-21T13:37:49.692Z,10.30
2022-11-21T13:40:31.510Z,10.20
2022-11-21T13:43:33.140Z,10.25
2022-11-21T13:46:01.149Z,9.50
2022-11-21T13:48:37.174Z,10.68
2022-11-21T13:51:07.110Z,10.45
2022-11-21T13:54:03.096Z,12.52
2022-11-21T13:56:38.619Z,10.30
2022-11-21T13:59:17.538Z,10.32
2022-11-21T14:02:19.759Z,10.13
2022-11-21T14:05:18.540Z,10.57
2022-11-21T14:07:47.749Z,10.85
2022-11-21T14:10:35.833Z,11.63
2022-11-21T14:13:03.934Z,10.85
2022-11-21T14:16:13.656Z,10.93
2022-11-21T14:18:43.920Z,11.45
2022-11-21T14:23:49.613Z,11.10
2022-11-21T14:26:20.018Z,13.35
2022-11-21T14:28:47.855Z,12.60
2022-11-21T14:31:15.390Z,12.73
2022-11-21T14:33:43.620Z,11.73
2022-11-21T14:36:18.561Z,11.43
2022-11-21T14:39:07.685Z,10.98
2022-11-21T14:41:39.240Z,11.35
2022-11-21T14:44:15.010Z,11.25
2022-11-21T14:46:43.375Z,9.73
2022-11-21T14:49:22.295Z,11.38
2022-11-21T14:52:12.164Z,11.05
2022-11-21T14:55:06.441Z,10.18
2022-11-21T14:57:37.261Z,10.75
2022-11-21T15:00:06.794Z,9.98
2022-11-21T15:02:34.800Z,10.07
2022-11-21T15:05:07.552Z,10.60
2022-11-21T15:07:43.749Z,10.20
2022-11-21T15:10:31.154Z,9.20
2022-11-21T15:13:13.641Z,11.13
2022-11-21T15:15:47.212Z,11.13
2022-11-21T15:18:27.395Z,11.50
2022-11-21T15:21:01.184Z,11.10
2022-11-21T15:23:33.697Z,9.77
2022-11-21T15:26:01.726Z,10.63
2022-11-21T15:28:30.046Z,9.65
2022-11-21T15:31:17.322Z,10.05
2022-11-21T15:34:33.163Z,9.90
2022-11-21T15:37:24.000Z,9.80
2022-11-21T15:39:53.059Z,10.00
2022-11-21T15:42:32.222Z,10.35
2022-11-21T15:44:59.281Z,11.40
2022-11-21T15:47:26.248Z,11.48
2022-11-21T15:49:53.223Z,11.70
2022-11-21T15:52:20.637Z,12.25
2022-11-21T15:54:48.345Z,12.93
2022-11-21T15:57:17.119Z,11.05
2022-11-21T15:59:45.182Z,11.93
2022-11-21T16:02:14.418Z,13.18
2022-11-21T16:04:42.245Z,12.77
2022-11-21T16:07:09.594Z,12.63
2022-11-21T16:09:37.505Z,14.23
2022-11-21T16:12:04.566Z,12.40
2022-11-21T16:14:31.464Z,13.65
2022-11-21T16:16:58.469Z,14.02
2022-11-21T16:19:25.968Z,12.48
2022-11-21T16:21:53.747Z,14.05
2022-11-21T16:24:20.835Z,14.88
2022-11-21T16:26:49.292Z,13.93
2022-11-21T16:29:16.309Z,15.65
2022-11-21T16:31:43.167Z,15.30
2022-11-21T16:34:10.137Z,15.45
2022-11-21T16:36:37.380Z,15.40
2022-11-21T16:39:10.011Z,14.82
2022-11-21T16:41:41.185Z,16.83
2022-11-21T16:44:14.181Z,16.52
2022-11-21T16:46:43.871Z,14.95
2022-11-21T16:49:10.926Z,15.18
2022-11-21T16:51:38.045Z,15.85
2022-11-21T16:54:08.811Z,16.52
2022-11-21T16:56:36.210Z,18.85
2022-11-21T16:59:03.327Z,18.40
2022-11-21T17:01:30.438Z,16.05
2022-11-21T17:03:57.672Z,16.30
2022-11-21T17:06:28.672Z,16.17
2022-11-21T17:08:55.829Z,16.88
2022-11-21T17:11:29.022Z,15.77
2022-11-21T17:13:59.923Z,17.33
2022-11-21T17:16:27.310Z,14.55
2022-11-21T17:18:55.851Z,15.52
2022-11-21T17:21:23.317Z,13.52
2022-11-21T17:23:50.769Z,15.82
2022-11-21T17:26:20.496Z,15.55
2022-11-21T17:29:01.209Z,16.40
2022-11-21T17:31:28.565Z,14.95
2022-11-21T17:34:00.827Z,15.48
2022-11-21T17:36:30.372Z,13.90
2022-11-21T17:38:57.325Z,15.35
2022-11-21T17:41:25.353Z,14.32
2022-11-21T17:43:57.188Z,15.38
2022-11-21T17:46:25.735Z,17.20
2022-11-21T17:48:57.246Z,15.23
2022-11-21T17:51:33.442Z,15.10
2022-11-21T17:54:01.744Z,14.95
2022-11-21T17:56:31.049Z,15.25
2022-11-21T17:58:58.058Z,14.05
2022-11-21T18:01:25.439Z,14.07
2022-11-21T18:03:58.426Z,14.32
2022-11-21T18:06:28.431Z,13.13
2022-11-21T18:08:59.313Z,14.27
2022-11-21T18:11:36.023Z,14.30
2022-11-21T18:14:07.337Z,14.32
2022-11-21T18:16:35.001Z,14.68
2022-11-21T18:19:02.436Z,15.55
2022-11-21T18:21:35.392Z,17.02
2022-11-21T18:24:02.420Z,15.38
2022-11-21T18:26:31.984Z,15.82
2022-11-21T18:29:28.801Z,14.88
2022-11-21T18:31:48.857Z,16.10
2022-11-21T18:34:15.757Z,15.30
2022-11-21T18:36:42.748Z,15.43
2022-11-21T18:39:14.812Z,14.43
2022-11-21T18:41:43.232Z,14.73
2022-11-21T18:44:11.473Z,16.00
2022-11-21T18:49:08.449Z,13.95
2022-11-21T18:51:36.303Z,14.18
2022-11-21T18:54:07.441Z,14.30
2022-11-21T18:56:35.858Z,13.57
2022-11-21T18:59:04.541Z,13.52
2022-11-21T19:01:32.889Z,14.60
2022-11-21T19:04:00.199Z,15.30
2022-11-21T19:06:28.075Z,16.42
2022-11-21T19:08:57.132Z,15.70
2022-11-21T19:11:26.441Z,16.50
2022-11-21T19:13:54.827Z,16.95
2022-11-21T19:16:25.022Z,15.90
2022-11-21T19:21:41.621Z,15.02
2022-11-21T19:24:14.637Z,14.85
2022-11-21T19:26:42.632Z,15.23
2022-11-21T19:29:10.229Z,14.80
2022-11-21T19:31:43.024Z,17.77
2022-11-21T19:34:11.794Z,15.30
2022-11-21T19:36:39.579Z,16.13
2022-11-21T19:39:06.825Z,15.52
2022-11-21T19:41:33.752Z,14.35
2022-11-21T19:44:01.599Z,15.23
2022-11-21T19:46:33.400Z,14.98
2022-11-21T19:49:01.303Z,13.98
2022-11-21T19:51:33.735Z,15.20
2022-11-21T19:54:05.177Z,15.05
2022-11-21T19:56:32.503Z,13.70
2022-11-21T19:58:59.615Z,13.70
2022-11-21T20:01:29.124Z,13.68
2022-11-21T20:03:59.086Z,15.15
2022-11-21T20:06:33.862Z,13.93
2022-11-21T20:09:04.719Z,13.43
2022-11-21T20:11:32.735Z,12.90
2022-11-21T20:13:59.932Z,13.32
2022-11-21T20:16:38.596Z,12.85
2022-11-21T20:19:08.395Z,12.68
2022-11-21T20:21:35.854Z,12.27
2022-11-21T20:24:03.688Z,12.18
2022-11-21T20:26:30.833Z,12.43
2022-11-21T20:28:57.922Z,12.95
2022-11-21T20:31:27.862Z,12.15
2022-11-21T20:34:00.375Z,13.60
2022-11-21T20:36:29.567Z,12.80
2022-11-21T20:38:58.963Z,12.50
2022-11-21T20:41:28.137Z,10.60
2022-11-21T20:46:48.443Z,11.02
2022-11-21T20:49:15.564Z,10.82
2022-11-21T20:53:36.619Z,11.50
2022-11-21T20:54:35.189Z,11.35
2022-11-21T20:57:02.058Z,11.38
2022-11-21T20:59:29.361Z,10.90
2022-11-21T21:01:56.777Z,12.93
2022-11-21T21:04:23.674Z,10.70
2022-11-21T21:06:50.673Z,11.85
2022-11-21T21:09:17.591Z,11.75
2022-11-21T21:11:52.185Z,11.43
2022-11-21T21:14:20.724Z,9.82
2022-11-21T21:16:48.113Z,10.60
2022-11-21T21:19:15.214Z,12.30
2022-11-21T21:21:42.227Z,11.82
2022-11-21T21:24:11.047Z,11.38
2022-11-21T21:26:47.022Z,11.52
2022-11-21T21:29:17.932Z,14.13
2022-11-21T21:31:50.510Z,13.95
2022-11-21T21:34:20.125Z,13.77
2022-11-21T21:36:47.297Z,12.82
2022-11-21T21:39:14.327Z,15.23
2022-11-21T21:41:44.626Z,13.10
2022-11-21T21:44:12.094Z,12.32
2022-11-21T21:46:39.034Z,12.20
2022-11-21T21:49:05.901Z,12.27
2022-11-21T21:51:32.752Z,13.07
2022-11-21T21:54:00.278Z,11.35
2022-11-21T21:56:28.648Z,12.90
2022-11-21T21:58:57.558Z,11.73
2022-11-21T22:01:32.400Z,10.80
2022-11-21T22:04:01.970Z,10.68
2022-11-21T22:06:29.790Z,10.50
2022-11-21T22:08:56.749Z,9.90
2022-11-21T22:11:26.524Z,10.70
2022-11-21T22:13:55.574Z,10.30
2022-11-21T22:16:22.935Z,9.45
2022-11-21T22:18:50.132Z,9.95
2022-11-21T22:21:26.808Z,9.07
2022-11-21T22:26:42.541Z,9.43
2022-11-21T22:29:09.399Z,9.23
2022-11-21T22:31:37.445Z,8.85
2022-11-21T22:34:04.902Z,10.40
2022-11-21T22:36:31.914Z,8.55
2022-11-21T22:38:58.773Z,9.57
2022-11-21T22:41:27.117Z,9.43
2022-11-21T22:43:58.708Z,9.15
2022-11-21T22:46:28.332Z,9.32
2022-11-21T22:48:55.397Z,9.13
2022-11-21T22:51:24.482Z,10.10
2022-11-21T22:53:51.957Z,9.80
2022-11-21T22:56:21.403Z,9.10
2022-11-21T22:58:48.802Z,10.87
2022-11-21T23:01:21.279Z,9.77
2022-11-21T23:03:49.179Z,10.15
2022-11-21T23:06:24.659Z,9.90
2022-11-21T23:08:53.494Z,10.38
2022-11-21T23:11:26.089Z,9.93
2022-11-21T23:13:54.075Z,10.45
2022-11-21T23:16:21.303Z,10.75
2022-11-21T23:18:48.859Z,10.48
2022-11-21T23:21:15.800Z,10.20
2022-11-21T23:23:43.993Z,10.15
2022-11-21T23:26:11.905Z,10.68
2022-11-21T23:28:38.938Z,9.48
2022-11-21T23:31:05.808Z,9.95
2022-11-21T23:33:32.721Z,11.85
2022-11-21T23:35:59.601Z,11.65
2022-11-21T23:38:26.679Z,11.70
2022-11-21T23:40:53.661Z,11.32
2022-11-21T23:43:20.587Z,12.50
2022-11-21T23:45:52.306Z,10.35
2022-11-21T23:48:19.961Z,11.70
2022-11-21T23:50:47.896Z,12.45
2022-11-21T23:53:14.800Z,12.25
2022-11-21T23:55:43.629Z,10.95
2022-11-21T23:58:12.303Z,10.98
